WEATHER DATA

TODAY
Time Temp. Dewp. Hum. Wind dir Wind speed Wind gust Bar. 1h Prec. 24h Prec.
00:18 17 14.1 83 238 1.9 3.6 1013.3 0.0000 0.0000
00:28 16.9 14 83 232 1.7 2.5 1013.3 0.0000 0.0000
00:39 16.8 13.9 83 235 1.9 3.3 1013.3 0.0000 0.0000
00:49 16.7 14 84 234 1.9 3.3 1013.4 0.0000 0.0000
00:58 16.7 14 84 233 1.7 3.6 1013.4 0.0000 0.0000
01:08 16.6 13.9 84 240 1.7 3.3 1013.4 0.0000 0.0000
01:19 16.5 13.8 84 234 1.9 2.8 1013.3 0.0000 0.0000
01:29 16.4 13.7 84 238 1.9 3.6 1013.3 0.0000 0.0000
01:39 16.3 13.6 84 235 1.9 4.4 1013.2 0.0000 0.0000
01:49 16.3 13.6 84 240 1.9 2.8 1013.3 0.0000 0.0000
01:59 16.2 13.5 84 241 1.7 2.8 1013.2 0.0000 0.0000
02:09 16.1 13.4 84 238 1.7 3.3 1013.2 0.0000 0.0000
02:19 16 13.3 84 238 1.7 2.8 1013.2 0.0000 0.0000
02:30 15.9 13.4 85 235 1.9 2.8 1013.2 0.0000 0.0000
02:39 15.9 13.4 85 235 1.9 3.6 1013.2 0.0000 0.0000
02:49 15.9 13.4 85 234 2.5 4.2 1013.1 0.0000 0.0000
02:59 15.9 13.4 85 234 1.9 3.6 1013.1 0.0000 0.0000
03:10 15.9 13.4 85 231 2.5 3.6 1013 0.0000 0.0000
03:20 15.9 13.4 85 235 1.9 3.6 1013 0.0000 0.0000
03:29 15.9 13.4 85 230 1.9 3.6 1012.9 0.0000 0.0000
03:40 15.9 13.6 86 234 1.9 3.3 1013 0.0000 0.0000
03:50 15.9 13.6 86 229 1.9 3.6 1012.9 0.0000 0.0000
04:00 15.9 13.6 86 230 1.9 3.6 1012.9 0.0000 0.0000
04:10 15.9 13.6 86 229 1.9 3.3 1012.9 0.0000 0.0000
04:20 15.9 13.6 86 237 1.7 2.8 1012.8 0.0000 0.0000
04:30 15.9 13.6 86 233 1.7 3.3 1012.7 0.0000 0.0000
04:40 15.9 13.7 87 235 1.7 2.8 1012.7 0.0000 0.0000
04:51 16 13.8 87 240 1.7 2.8 1012.6 0.0000 0.0000
05:01 16 13.8 87 235 1.7 3.3 1012.6 0.0000 0.0000
05:10 16 13.8 87 228 1.7 2.8 1012.7 0.0000 0.0000
05:20 16 13.8 87 229 1.7 2.8 1012.7 0.0000 0.0000
05:31 16 13.8 87 230 1.7 2.8 1012.7 0.0000 0.0000
05:41 16.1 13.9 87 231 1.1 1.9 1012.7 0.0000 0.0000
05:51 16.1 13.9 87 227 1.7 2.8 1012.7 0.0000 0.0000
06:01 16.1 13.9 87 230 1.7 2.8 1012.7 0.0000 0.0000
06:11 16.1 13.9 87 225 1.1 1.9 1012.6 0.0000 0.0000
06:21 16.1 13.9 87 228 1.7 2.8 1012.5 0.0000 0.0000
06:31 16.1 14.1 88 229 1.7 2.8 1012.6 0.0000 0.0000
06:42 16.1 13.9 87 231 1.1 2.8 1012.6 0.0000 0.0000
06:51 16.1 13.9 87 225 1.7 2.5 1012.5 0.0000 0.0000
07:01 16.1 13.9 87 228 1.1 2.5 1012.6 0.0000 0.0000
07:12 16.2 14 87 226 1.1 2.5 1012.6 0.0000 0.0000
07:22 16.2 14 87 229 0.8 1.9 1012.6 0.0000 0.0000
07:32 16.1 13.9 87 227 1.1 2.5 1012.6 0.0000 0.0000
07:41 16.2 14 87 212 0.8 1.9 1012.6 0.0000 0.0000
07:52 16.2 14 87 218 0.8 1.7 1012.5 0.0000 0.0000
08:02 16.2 14 87 135 0.3 1.7 1012.5 0.0000 0.0000
08:12 16.2 14 87 180 0.3 1.7 1012.5 0.0000 0.0000
08:22 16.3 14.1 87 168 0.3 1.1 1012.5 0.0000 0.0000
08:33 16.4 14.2 87 223 1.7 4.2 1012.4 0.0000 0.0000
08:37 16.4 14.2 87 225 2.8 8.3 1012.4 0.0000 0.0000
08:46 16.5 14.3 87 229 4.2 7.8 1012.4 0.0000 0.0000
08:57 16.6 14.4 87 222 5.3 9.4 1012.4 0.0000 0.0000
09:07 16.7 14.5 87 223 4.2 8.9 1012.4 0.0000 0.0000
09:17 16.7 14.3 86 203 3.6 6.7 1012.4 0.0000 0.0000
09:34 16.8 14.3 85 221 4.4 9.7 1012.4 0.0000 0.0000
09:44 16.8 14.1 84 211 4.2 10.6 1012.4 0.0000 0.0000
10:04 17 14.5 85 202 4.2 10.3 1012.5 0.0000 0.0000
10:24 17.1 14.4 84 162 6.9 16.1 1012.4 0.0000 0.0000
10:34 17.2 14.5 84 178 6.9 12.2 1012.5 0.0000 0.0000
10:44 17.3 14.6 84 259 4.2 8.6 1012.4 0.0000 0.0000
10:47 17.4 14.7 84 158 6.9 15.3 1012.4 0.0000 0.0000
10:57 17.5 14.8 84 253 3.3 6.7 1012.3 0.0000 0.0000
11:07 17.6 14.9 84 244 4.2 6.9 1012.3 0.0000 0.0000
11:18 17.7 15 84 237 5 8.6 1012.2 0.0000 0.0000
11:27 17.8 15.1 84 236 4.2 7.5 1012.2 0.0000 0.0000
11:37 17.8 15.1 84 243 4.4 9.7 1012.1 0.0000 0.0000
11:48 17.9 15.2 84 235 5.3 9.4 1012.1 0.0000 0.0000
11:58 17.9 15.2 84 238 4.4 7.8 1012.1 0.0000 0.0000
12:08 18 15.3 84 242 4.2 7.8 1012.1 0.0000 0.0000
12:17 18.1 15.4 84 236 4.4 9.4 1012 0.0000 0.0000
12:28 18.2 15.5 84 236 4.2 8.9 1012 0.0000 0.0000
12:35 18.3 15.4 83 240 4.2 9.4 1012 0.0000 0.0000
12:45 18.3 15.4 83 240 5 8.3 1011.9 0.0000 0.0000
12:55 18.3 15.2 82 234 5.3 9.7 1011.9 0.0000 0.0000
13:05 18.4 15.3 82 237 5.8 8.9 1012 0.0000 0.0000
13:16 18.5 15.4 82 237 5 10.6 1011.9 0.0000 0.0000
13:26 18.6 15.3 81 231 6.1 9.4 1011.9 0.0000 0.0000
13:43 18.7 15.4 81 233 6.1 12.8 1011.9 0.0000 0.0000
13:53 18.8 15.3 80 237 4.2 8.3 1011.7 0.0000 0.0000
14:03 18.9 15.4 80 234 5.8 11.4 1011.8 0.0000 0.0000
14:13 19 15.3 79 237 5 11.1 1011.7 0.0000 0.0000
14:23 19 15.1 78 233 5 10.6 1011.6 0.0000 0.0000
14:32 19.1 15 77 236 5 13.1 1011.6 0.0000 0.0000
14:42 19.1 15 77 233 4.4 10.6 1011.5 0.0000 0.0000
14:52 19.2 15.3 78 237 5 8.3 1011.5 0.0000 0.0000
15:00 19.2 15.3 78 226 5 11.1 1011.5 0.0000 0.0000
15:09 19.3 15.4 78 240 4.2 7.8 1011.3 0.0000 0.0000
15:19 19.4 15.5 78 241 5 7.8 1011.3 0.0000 0.0000
15:30 19.5 15.6 78 234 5 7.8 1011.2 0.0000 0.0000
15:40 19.5 15.6 78 234 5 11.9 1011.2 0.0000 0.0000
15:50 19.6 15.7 78 225 4.4 9.7 1011.3 0.0000 0.0000
16:00 19.6 15.7 78 266 3.6 8.6 1011.2 0.0000 0.0000
16:10 19.7 15.8 78 237 5 8.3 1011.1 0.0000 0.0000
16:20 19.8 15.9 78 238 5 9.4 1011 0.0000 0.0000
16:28 19.8 15.7 77 237 5.3 11.9 1011 0.0000 0.0000
16:38 19.9 15.8 77 236 5 8.6 1010.7 0.0000 0.0000
16:48 20 15.8 77 237 5.3 10.3 1010.7 0.0000 0.0000
16:58 20.1 15.7 76 238 4.4 8.6 1010.7 0.0000 0.0000
17:08 20.2 15.8 76 235 4.4 11.1 1010.7 0.0000 0.0000
17:18 20.3 15.9 76 241 4.2 8.9 1010.5 0.0000 0.0000
17:28 20.4 15.8 75 238 4.2 9.7 1010.5 0.0000 0.0000
17:39 20.5 15.9 75 241 3.6 6.7 1010.4 0.0000 0.0000
17:46 20.5 15.9 75 236 5 12.2 1010.3 0.0000 0.0000
17:56 20.5 15.9 75 236 5 10.6 1010.2 0.0000 0.0000
18:05 20.6 15.8 74 239 4.4 7.8 1010.1 0.0000 0.0000
18:15 20.6 15.8 74 236 4.4 9.4 1010.1 0.0000 0.0000
18:26 20.6 15.8 74 240 4.2 6.9 1010 0.0000 0.0000
18:36 20.6 15.8 74 242 4.4 9.4 1010 0.0000 0.0000
18:46 20.7 15.9 74 237 5 9.7 1010 0.0000 0.0000
18:57 20.7 15.9 74 234 4.4 10.6 1010 0.0000 0.0000
19:08 20.7 15.7 73 246 4.4 9.4 1010 0.0000 0.0000
19:23 20.7 15.7 73 236 5 13.6 1009.9 0.0000 0.0000
19:33 20.7 15.9 74 238 5 10.6 1009.9 0.0000 0.0000
19:43 20.7 15.9 74 232 6.9 12.2 1009.8 0.0000 0.0000
19:53 20.6 15.8 74 229 4.2 7.8 1009.9 0.0000 0.0000
20:03 20.6 16 75 222 1.9 3.3 1009.9 0.0000 0.0000
20:13 20.5 15.9 75 222 1.7 3.3 1009.8 0.0000 0.0000
20:24 20.5 16.1 76 207 1.1 1.9 1009.8 0.0000 0.0000
20:34 20.4 16.2 77 161 0.3 1.7 1009.9 0.0000 0.0000
20:43 20.3 16.3 78 90 0.3 0.8 1009.9 0.0000 0.0000

DAY STATISTIC

2019-07-17
TEMPERATURE
AVERAGE
17.8
HIGH
20.7
18:46
LOW
15.9
02:30
PRESSURE
AVERAGE
1011.9
HIGH
1013.4
00:49
LOW
1009.8
19:43
DEWPOINT
AVERAGE
14.7
HIGH
16.3
20:43
LOW
13.3
02:19
HUMIDITY
AVERAGE
82
HIGH
88
06:31
LOW
73
19:08
WIND SPEED
AVERAGE
3.3
HIGH
6.9
10:24
WIND GUST
AVERAGE
6.6
HIGH
16.1
10:24
WIND DIRECTION
PREVAILING
SW
89.3%
N
0.0
NE
0.0
E
0.8
SE
0.8
S
6.6
SW
89.3
W
2.5
NW
0.0
PRECIPITATION
RAIN HOUR
0.0
RAIN DAY
0.0
TEMPERATURE (°C)
LOW
15.9
HIGH
20.7
AVERAGE
17.8
PRESSURE (hpa)
LOW
1009.8
HIGH
1013.4
AVERAGE
1011.9
DEVICE